sensor_id;sensor_type;location;lat;lon;timestamp;P1;durP1;ratioP1;P2;durP2;ratioP2
77010;SDS011;65945;53.148;17.956;2024-01-16T00:01:33;0.30;;;0.30;;
77010;SDS011;65945;53.148;17.956;2024-01-16T00:04:00;2.10;;;0.70;;
77010;SDS011;65945;53.148;17.956;2024-01-16T00:06:27;2.80;;;0.50;;
77010;SDS011;65945;53.148;17.956;2024-01-16T00:08:54;3.30;;;0.60;;
77010;SDS011;65945;53.148;17.956;2024-01-16T00:11:20;2.00;;;0.70;;
77010;SDS011;65945;53.148;17.956;2024-01-16T00:13:47;1.00;;;0.70;;
77010;SDS011;65945;53.148;17.956;2024-01-16T00:16:15;0.40;;;0.30;;
77010;SDS011;65945;53.148;17.956;2024-01-16T00:18:42;3.80;;;0.60;;
77010;SDS011;65945;53.148;17.956;2024-01-16T00:21:08;21.00;;;4.60;;
77010;SDS011;65945;53.148;17.956;2024-01-16T00:23:35;9.80;;;2.40;;
77010;SDS011;65945;53.148;17.956;2024-01-16T00:26:01;7.10;;;1.50;;
77010;SDS011;65945;53.148;17.956;2024-01-16T00:28:28;4.00;;;1.00;;
77010;SDS011;65945;53.148;17.956;2024-01-16T00:30:55;4.40;;;0.60;;
77010;SDS011;65945;53.148;17.956;2024-01-16T00:33:21;0.40;;;0.40;;
77010;SDS011;65945;53.148;17.956;2024-01-16T00:35:48;0.50;;;0.40;;
77010;SDS011;65945;53.148;17.956;2024-01-16T00:38:15;2.50;;;0.70;;
77010;SDS011;65945;53.148;17.956;2024-01-16T00:40:42;0.30;;;0.30;;
77010;SDS011;65945;53.148;17.956;2024-01-16T00:43:08;2.60;;;0.60;;
77010;SDS011;65945;53.148;17.956;2024-01-16T00:45:35;0.40;;;0.30;;
77010;SDS011;65945;53.148;17.956;2024-01-16T00:48:02;2.90;;;0.50;;
77010;SDS011;65945;53.148;17.956;2024-01-16T00:50:30;1.20;;;0.40;;
77010;SDS011;65945;53.148;17.956;2024-01-16T00:52:58;4.10;;;0.60;;
77010;SDS011;65945;53.148;17.956;2024-01-16T00:55:24;1.50;;;0.40;;
77010;SDS011;65945;53.148;17.956;2024-01-16T00:57:51;1.70;;;0.80;;
77010;SDS011;65945;53.148;17.956;2024-01-16T01:00:18;4.10;;;0.60;;
77010;SDS011;65945;53.148;17.956;2024-01-16T01:02:44;1.30;;;0.40;;
77010;SDS011;65945;53.148;17.956;2024-01-16T01:05:11;1.60;;;0.70;;
77010;SDS011;65945;53.148;17.956;2024-01-16T01:07:38;1.10;;;0.40;;
77010;SDS011;65945;53.148;17.956;2024-01-16T01:10:04;1.00;;;0.60;;
77010;SDS011;65945;53.148;17.956;2024-01-16T01:12:31;2.20;;;0.40;;
77010;SDS011;65945;53.148;17.956;2024-01-16T01:14:58;1.00;;;0.40;;
77010;SDS011;65945;53.148;17.956;2024-01-16T01:17:25;1.70;;;0.40;;
77010;SDS011;65945;53.148;17.956;2024-01-16T01:19:51;0.30;;;0.20;;
77010;SDS011;65945;53.148;17.956;2024-01-16T01:22:18;1.70;;;0.40;;
77010;SDS011;65945;53.148;17.956;2024-01-16T01:24:44;1.70;;;0.30;;
77010;SDS011;65945;53.148;17.956;2024-01-16T01:27:11;1.80;;;0.50;;
77010;SDS011;65945;53.148;17.956;2024-01-16T01:29:37;0.90;;;0.50;;
77010;SDS011;65945;53.148;17.956;2024-01-16T01:32:04;0.20;;;0.20;;
77010;SDS011;65945;53.148;17.956;2024-01-16T01:34:31;3.40;;;1.00;;
77010;SDS011;65945;53.148;17.956;2024-01-16T01:36:57;2.20;;;0.70;;
77010;SDS011;65945;53.148;17.956;2024-01-16T01:39:24;12.50;;;1.90;;
77010;SDS011;65945;53.148;17.956;2024-01-16T01:41:51;3.70;;;0.70;;
77010;SDS011;65945;53.148;17.956;2024-01-16T01:44:17;2.20;;;0.50;;
77010;SDS011;65945;53.148;17.956;2024-01-16T01:46:44;2.30;;;0.40;;
77010;SDS011;65945;53.148;17.956;2024-01-16T01:49:13;11.90;;;2.70;;
77010;SDS011;65945;53.148;17.956;2024-01-16T01:51:41;4.10;;;1.00;;
77010;SDS011;65945;53.148;17.956;2024-01-16T01:54:09;1.20;;;0.40;;
77010;SDS011;65945;53.148;17.956;2024-01-16T01:56:37;2.10;;;0.30;;
77010;SDS011;65945;53.148;17.956;2024-01-16T01:59:04;1.20;;;0.30;;
77010;SDS011;65945;53.148;17.956;2024-01-16T02:01:31;0.30;;;0.30;;
77010;SDS011;65945;53.148;17.956;2024-01-16T02:04:00;1.00;;;0.30;;
77010;SDS011;65945;53.148;17.956;2024-01-16T02:06:28;14.30;;;4.20;;
77010;SDS011;65945;53.148;17.956;2024-01-16T02:08:55;4.60;;;1.60;;
77010;SDS011;65945;53.148;17.956;2024-01-16T02:11:21;22.00;;;2.80;;
77010;SDS011;65945;53.148;17.956;2024-01-16T02:13:48;14.30;;;3.10;;
77010;SDS011;65945;53.148;17.956;2024-01-16T02:16:22;14.80;;;3.10;;
77010;SDS011;65945;53.148;17.956;2024-01-16T02:18:49;28.80;;;6.70;;
77010;SDS011;65945;53.148;17.956;2024-01-16T02:21:19;4.70;;;1.20;;
77010;SDS011;65945;53.148;17.956;2024-01-16T02:23:48;1.70;;;0.40;;
77010;SDS011;65945;53.148;17.956;2024-01-16T02:26:15;1.00;;;0.50;;
77010;SDS011;65945;53.148;17.956;2024-01-16T02:28:42;3.30;;;0.40;;
77010;SDS011;65945;53.148;17.956;2024-01-16T02:31:09;5.30;;;1.20;;
77010;SDS011;65945;53.148;17.956;2024-01-16T02:33:35;11.40;;;2.00;;
77010;SDS011;65945;53.148;17.956;2024-01-16T02:36:02;5.60;;;1.20;;
77010;SDS011;65945;53.148;17.956;2024-01-16T02:38:29;2.60;;;0.50;;
77010;SDS011;65945;53.148;17.956;2024-01-16T02:40:55;2.60;;;0.60;;
77010;SDS011;65945;53.148;17.956;2024-01-16T02:43:22;4.20;;;0.80;;
77010;SDS011;65945;53.148;17.956;2024-01-16T02:45:49;5.80;;;1.00;;
77010;SDS011;65945;53.148;17.956;2024-01-16T02:48:16;9.60;;;1.70;;
77010;SDS011;65945;53.148;17.956;2024-01-16T02:50:43;13.10;;;3.20;;
77010;SDS011;65945;53.148;17.956;2024-01-16T02:53:09;4.50;;;1.20;;
77010;SDS011;65945;53.148;17.956;2024-01-16T02:55:36;2.40;;;0.90;;
77010;SDS011;65945;53.148;17.956;2024-01-16T02:58:02;8.90;;;2.20;;
77010;SDS011;65945;53.148;17.956;2024-01-16T03:00:29;3.90;;;1.10;;
77010;SDS011;65945;53.148;17.956;2024-01-16T03:02:56;7.20;;;0.60;;
77010;SDS011;65945;53.148;17.956;2024-01-16T03:05:23;1.50;;;0.50;;
77010;SDS011;65945;53.148;17.956;2024-01-16T03:07:49;4.90;;;0.80;;
77010;SDS011;65945;53.148;17.956;2024-01-16T03:10:16;0.30;;;0.30;;
77010;SDS011;65945;53.148;17.956;2024-01-16T03:12:42;6.20;;;1.40;;
77010;SDS011;65945;53.148;17.956;2024-01-16T03:15:09;15.70;;;3.80;;
77010;SDS011;65945;53.148;17.956;2024-01-16T03:17:36;7.20;;;1.40;;
77010;SDS011;65945;53.148;17.956;2024-01-16T03:20:03;2.50;;;0.60;;
77010;SDS011;65945;53.148;17.956;2024-01-16T03:22:29;3.10;;;1.10;;
77010;SDS011;65945;53.148;17.956;2024-01-16T03:24:56;4.20;;;0.50;;
77010;SDS011;65945;53.148;17.956;2024-01-16T03:27:23;1.10;;;0.50;;
77010;SDS011;65945;53.148;17.956;2024-01-16T03:29:50;1.20;;;0.40;;
77010;SDS011;65945;53.148;17.956;2024-01-16T03:32:17;1.20;;;0.30;;
77010;SDS011;65945;53.148;17.956;2024-01-16T03:34:43;1.70;;;0.40;;
77010;SDS011;65945;53.148;17.956;2024-01-16T03:37:10;1.10;;;0.40;;
77010;SDS011;65945;53.148;17.956;2024-01-16T03:39:37;1.10;;;0.50;;
77010;SDS011;65945;53.148;17.956;2024-01-16T03:42:03;0.50;;;0.30;;
77010;SDS011;65945;53.148;17.956;2024-01-16T03:44:30;0.80;;;0.40;;
77010;SDS011;65945;53.148;17.956;2024-01-16T03:46:57;1.40;;;0.40;;
77010;SDS011;65945;53.148;17.956;2024-01-16T03:49:23;8.70;;;1.90;;
77010;SDS011;65945;53.148;17.956;2024-01-16T03:51:50;16.40;;;3.50;;
77010;SDS011;65945;53.148;17.956;2024-01-16T03:54:17;3.00;;;0.70;;
77010;SDS011;65945;53.148;17.956;2024-01-16T03:56:43;2.10;;;0.40;;
77010;SDS011;65945;53.148;17.956;2024-01-16T03:59:10;1.30;;;0.40;;
77010;SDS011;65945;53.148;17.956;2024-01-16T04:01:37;1.60;;;0.40;;
77010;SDS011;65945;53.148;17.956;2024-01-16T04:04:03;0.70;;;0.40;;
77010;SDS011;65945;53.148;17.956;2024-01-16T04:06:32;0.70;;;0.50;;
77010;SDS011;65945;53.148;17.956;2024-01-16T04:08:59;1.10;;;0.40;;
77010;SDS011;65945;53.148;17.956;2024-01-16T04:11:26;1.30;;;0.30;;
77010;SDS011;65945;53.148;17.956;2024-01-16T04:13:52;0.30;;;0.20;;
77010;SDS011;65945;53.148;17.956;2024-01-16T04:16:19;1.40;;;0.40;;
77010;SDS011;65945;53.148;17.956;2024-01-16T04:18:45;1.40;;;0.50;;
77010;SDS011;65945;53.148;17.956;2024-01-16T04:21:12;1.20;;;0.60;;
77010;SDS011;65945;53.148;17.956;2024-01-16T04:23:38;2.30;;;0.60;;
77010;SDS011;65945;53.148;17.956;2024-01-16T04:26:05;1.70;;;0.50;;
77010;SDS011;65945;53.148;17.956;2024-01-16T04:28:32;3.90;;;0.40;;
77010;SDS011;65945;53.148;17.956;2024-01-16T04:30:59;1.80;;;0.60;;
77010;SDS011;65945;53.148;17.956;2024-01-16T04:33:29;2.80;;;0.70;;
77010;SDS011;65945;53.148;17.956;2024-01-16T04:35:56;2.60;;;0.60;;
77010;SDS011;65945;53.148;17.956;2024-01-16T04:38:23;3.20;;;0.70;;
77010;SDS011;65945;53.148;17.956;2024-01-16T04:40:50;1.70;;;0.70;;
77010;SDS011;65945;53.148;17.956;2024-01-16T04:43:16;2.60;;;0.80;;
77010;SDS011;65945;53.148;17.956;2024-01-16T04:45:43;3.00;;;0.80;;
77010;SDS011;65945;53.148;17.956;2024-01-16T04:48:09;2.30;;;0.70;;
77010;SDS011;65945;53.148;17.956;2024-01-16T04:50:36;3.40;;;0.60;;
77010;SDS011;65945;53.148;17.956;2024-01-16T04:53:03;3.30;;;0.90;;
77010;SDS011;65945;53.148;17.956;2024-01-16T04:55:30;3.20;;;0.80;;
77010;SDS011;65945;53.148;17.956;2024-01-16T04:57:57;3.50;;;0.60;;
77010;SDS011;65945;53.148;17.956;2024-01-16T05:00:24;4.10;;;1.20;;
77010;SDS011;65945;53.148;17.956;2024-01-16T05:02:50;2.60;;;0.90;;
77010;SDS011;65945;53.148;17.956;2024-01-16T05:05:18;2.00;;;0.60;;
77010;SDS011;65945;53.148;17.956;2024-01-16T05:07:44;3.30;;;0.60;;
77010;SDS011;65945;53.148;17.956;2024-01-16T05:10:11;2.20;;;0.70;;
77010;SDS011;65945;53.148;17.956;2024-01-16T05:12:39;2.40;;;0.70;;
77010;SDS011;65945;53.148;17.956;2024-01-16T05:15:07;5.00;;;0.80;;
77010;SDS011;65945;53.148;17.956;2024-01-16T05:17:34;2.10;;;0.60;;
77010;SDS011;65945;53.148;17.956;2024-01-16T05:20:01;2.10;;;1.00;;
77010;SDS011;65945;53.148;17.956;2024-01-16T05:22:30;1.50;;;0.70;;
77010;SDS011;65945;53.148;17.956;2024-01-16T05:24:58;3.00;;;0.90;;
77010;SDS011;65945;53.148;17.956;2024-01-16T05:27:25;2.40;;;1.00;;
77010;SDS011;65945;53.148;17.956;2024-01-16T05:29:52;5.20;;;1.60;;
77010;SDS011;65945;53.148;17.956;2024-01-16T05:32:18;2.70;;;1.40;;
77010;SDS011;65945;53.148;17.956;2024-01-16T05:34:45;4.40;;;1.30;;
77010;SDS011;65945;53.148;17.956;2024-01-16T05:37:12;7.00;;;1.50;;
77010;SDS011;65945;53.148;17.956;2024-01-16T05:39:38;2.80;;;1.30;;
77010;SDS011;65945;53.148;17.956;2024-01-16T05:42:05;2.30;;;0.70;;
77010;SDS011;65945;53.148;17.956;2024-01-16T05:44:32;5.10;;;1.00;;
77010;SDS011;65945;53.148;17.956;2024-01-16T05:46:59;1.50;;;0.60;;
77010;SDS011;65945;53.148;17.956;2024-01-16T05:49:25;4.60;;;1.10;;
77010;SDS011;65945;53.148;17.956;2024-01-16T05:51:52;2.10;;;0.80;;
77010;SDS011;65945;53.148;17.956;2024-01-16T05:54:19;3.80;;;1.30;;
77010;SDS011;65945;53.148;17.956;2024-01-16T05:56:46;3.30;;;1.20;;
77010;SDS011;65945;53.148;17.956;2024-01-16T05:59:12;4.30;;;1.00;;
77010;SDS011;65945;53.148;17.956;2024-01-16T06:01:39;1.90;;;0.80;;
77010;SDS011;65945;53.148;17.956;2024-01-16T06:04:05;4.10;;;1.00;;
77010;SDS011;65945;53.148;17.956;2024-01-16T06:06:32;2.60;;;1.20;;
77010;SDS011;65945;53.148;17.956;2024-01-16T06:08:59;4.00;;;1.00;;
77010;SDS011;65945;53.148;17.956;2024-01-16T06:11:31;5.90;;;1.40;;
77010;SDS011;65945;53.148;17.956;2024-01-16T06:13:58;4.50;;;1.00;;
77010;SDS011;65945;53.148;17.956;2024-01-16T06:16:26;2.80;;;1.20;;
77010;SDS011;65945;53.148;17.956;2024-01-16T06:18:52;2.70;;;1.00;;
77010;SDS011;65945;53.148;17.956;2024-01-16T06:21:19;7.60;;;1.20;;
77010;SDS011;65945;53.148;17.956;2024-01-16T06:23:46;5.40;;;1.80;;
77010;SDS011;65945;53.148;17.956;2024-01-16T06:26:12;5.70;;;1.60;;
77010;SDS011;65945;53.148;17.956;2024-01-16T06:28:39;4.70;;;1.30;;
77010;SDS011;65945;53.148;17.956;2024-01-16T06:31:09;4.40;;;1.20;;
77010;SDS011;65945;53.148;17.956;2024-01-16T06:33:36;6.20;;;1.60;;
77010;SDS011;65945;53.148;17.956;2024-01-16T06:36:02;5.40;;;1.50;;
77010;SDS011;65945;53.148;17.956;2024-01-16T06:38:30;2.80;;;1.40;;
77010;SDS011;65945;53.148;17.956;2024-01-16T06:40:57;4.90;;;1.80;;
77010;SDS011;65945;53.148;17.956;2024-01-16T06:43:24;3.30;;;1.20;;
77010;SDS011;65945;53.148;17.956;2024-01-16T06:45:51;7.50;;;1.70;;
77010;SDS011;65945;53.148;17.956;2024-01-16T06:48:18;3.20;;;0.90;;
77010;SDS011;65945;53.148;17.956;2024-01-16T06:50:44;8.40;;;1.50;;
77010;SDS011;65945;53.148;17.956;2024-01-16T06:53:11;13.00;;;4.10;;
77010;SDS011;65945;53.148;17.956;2024-01-16T06:55:39;5.70;;;2.20;;
77010;SDS011;65945;53.148;17.956;2024-01-16T06:58:06;7.10;;;2.70;;
77010;SDS011;65945;53.148;17.956;2024-01-16T07:00:32;7.40;;;2.70;;
77010;SDS011;65945;53.148;17.956;2024-01-16T07:02:59;8.20;;;3.50;;
77010;SDS011;65945;53.148;17.956;2024-01-16T07:05:25;18.20;;;6.10;;
77010;SDS011;65945;53.148;17.956;2024-01-16T07:07:52;19.50;;;7.10;;
77010;SDS011;65945;53.148;17.956;2024-01-16T07:10:19;16.20;;;6.00;;
77010;SDS011;65945;53.148;17.956;2024-01-16T07:12:48;16.80;;;6.60;;
77010;SDS011;65945;53.148;17.956;2024-01-16T07:15:15;12.90;;;4.80;;
77010;SDS011;65945;53.148;17.956;2024-01-16T07:17:42;14.00;;;4.80;;
77010;SDS011;65945;53.148;17.956;2024-01-16T07:20:09;11.50;;;4.10;;
77010;SDS011;65945;53.148;17.956;2024-01-16T07:22:36;8.80;;;3.40;;
77010;SDS011;65945;53.148;17.956;2024-01-16T07:25:06;10.40;;;3.30;;
77010;SDS011;65945;53.148;17.956;2024-01-16T07:27:33;10.10;;;3.70;;
77010;SDS011;65945;53.148;17.956;2024-01-16T07:30:01;9.40;;;3.30;;
77010;SDS011;65945;53.148;17.956;2024-01-16T07:32:30;9.40;;;4.00;;
77010;SDS011;65945;53.148;17.956;2024-01-16T07:34:58;6.00;;;3.10;;
77010;SDS011;65945;53.148;17.956;2024-01-16T07:37:24;8.20;;;4.40;;
77010;SDS011;65945;53.148;17.956;2024-01-16T07:39:51;15.60;;;5.70;;
77010;SDS011;65945;53.148;17.956;2024-01-16T07:42:19;22.10;;;11.40;;
77010;SDS011;65945;53.148;17.956;2024-01-16T07:44:45;19.50;;;9.10;;
77010;SDS011;65945;53.148;17.956;2024-01-16T07:47:12;13.00;;;5.80;;
77010;SDS011;65945;53.148;17.956;2024-01-16T07:49:38;16.30;;;7.10;;
77010;SDS011;65945;53.148;17.956;2024-01-16T07:52:05;14.40;;;5.60;;
77010;SDS011;65945;53.148;17.956;2024-01-16T07:54:32;18.10;;;6.20;;
77010;SDS011;65945;53.148;17.956;2024-01-16T07:56:59;15.50;;;6.60;;
77010;SDS011;65945;53.148;17.956;2024-01-16T07:59:26;17.10;;;6.40;;
77010;SDS011;65945;53.148;17.956;2024-01-16T08:01:52;9.50;;;4.70;;
77010;SDS011;65945;53.148;17.956;2024-01-16T08:04:20;13.70;;;5.30;;
77010;SDS011;65945;53.148;17.956;2024-01-16T08:06:46;9.30;;;4.20;;
77010;SDS011;65945;53.148;17.956;2024-01-16T08:09:13;11.90;;;4.80;;
77010;SDS011;65945;53.148;17.956;2024-01-16T08:11:40;10.40;;;4.00;;
77010;SDS011;65945;53.148;17.956;2024-01-16T08:14:07;12.30;;;3.70;;
77010;SDS011;65945;53.148;17.956;2024-01-16T08:16:33;10.30;;;3.70;;
77010;SDS011;65945;53.148;17.956;2024-01-16T08:19:00;10.80;;;4.30;;
77010;SDS011;65945;53.148;17.956;2024-01-16T08:21:26;13.40;;;3.50;;
77010;SDS011;65945;53.148;17.956;2024-01-16T08:23:53;19.40;;;4.60;;
77010;SDS011;65945;53.148;17.956;2024-01-16T08:26:20;8.70;;;4.40;;
77010;SDS011;65945;53.148;17.956;2024-01-16T08:28:46;10.00;;;4.00;;
77010;SDS011;65945;53.148;17.956;2024-01-16T08:31:16;9.40;;;3.90;;
77010;SDS011;65945;53.148;17.956;2024-01-16T08:33:48;11.40;;;3.90;;
77010;SDS011;65945;53.148;17.956;2024-01-16T08:36:15;10.80;;;4.20;;
77010;SDS011;65945;53.148;17.956;2024-01-16T08:38:41;12.30;;;3.90;;
77010;SDS011;65945;53.148;17.956;2024-01-16T08:41:08;17.20;;;5.10;;
77010;SDS011;65945;53.148;17.956;2024-01-16T08:43:35;13.70;;;3.70;;
77010;SDS011;65945;53.148;17.956;2024-01-16T08:46:02;11.90;;;4.00;;
77010;SDS011;65945;53.148;17.956;2024-01-16T08:48:28;12.00;;;4.10;;
77010;SDS011;65945;53.148;17.956;2024-01-16T08:50:55;13.50;;;5.80;;
77010;SDS011;65945;53.148;17.956;2024-01-16T08:53:22;14.90;;;5.20;;
77010;SDS011;65945;53.148;17.956;2024-01-16T08:55:49;8.50;;;3.80;;
77010;SDS011;65945;53.148;17.956;2024-01-16T08:58:16;8.80;;;4.10;;
77010;SDS011;65945;53.148;17.956;2024-01-16T09:00:43;14.50;;;3.50;;
77010;SDS011;65945;53.148;17.956;2024-01-16T09:03:11;10.20;;;3.50;;
77010;SDS011;65945;53.148;17.956;2024-01-16T09:05:38;8.20;;;3.00;;
77010;SDS011;65945;53.148;17.956;2024-01-16T09:08:05;6.60;;;3.10;;
77010;SDS011;65945;53.148;17.956;2024-01-16T09:10:32;7.50;;;2.70;;
77010;SDS011;65945;53.148;17.956;2024-01-16T09:12:58;10.90;;;3.40;;
77010;SDS011;65945;53.148;17.956;2024-01-16T09:15:25;7.50;;;3.20;;
77010;SDS011;65945;53.148;17.956;2024-01-16T09:17:52;5.60;;;2.20;;
77010;SDS011;65945;53.148;17.956;2024-01-16T09:20:19;5.90;;;2.70;;
77010;SDS011;65945;53.148;17.956;2024-01-16T09:22:45;11.60;;;3.50;;
77010;SDS011;65945;53.148;17.956;2024-01-16T09:25:12;8.70;;;3.30;;
77010;SDS011;65945;53.148;17.956;2024-01-16T09:27:39;8.20;;;3.10;;
77010;SDS011;65945;53.148;17.956;2024-01-16T09:30:05;10.20;;;3.60;;
77010;SDS011;65945;53.148;17.956;2024-01-16T09:32:33;7.30;;;3.20;;
77010;SDS011;65945;53.148;17.956;2024-01-16T09:35:01;7.70;;;2.60;;
77010;SDS011;65945;53.148;17.956;2024-01-16T09:37:30;6.40;;;2.80;;
77010;SDS011;65945;53.148;17.956;2024-01-16T09:39:57;6.90;;;2.60;;
77010;SDS011;65945;53.148;17.956;2024-01-16T09:42:24;5.30;;;2.80;;
77010;SDS011;65945;53.148;17.956;2024-01-16T09:44:52;7.50;;;2.90;;
77010;SDS011;65945;53.148;17.956;2024-01-16T09:47:20;8.00;;;3.10;;
77010;SDS011;65945;53.148;17.956;2024-01-16T09:49:47;9.20;;;3.20;;
77010;SDS011;65945;53.148;17.956;2024-01-16T09:52:15;6.70;;;2.40;;
77010;SDS011;65945;53.148;17.956;2024-01-16T09:54:41;8.20;;;3.50;;
77010;SDS011;65945;53.148;17.956;2024-01-16T09:57:09;7.20;;;3.20;;
77010;SDS011;65945;53.148;17.956;2024-01-16T09:59:39;10.30;;;3.50;;
77010;SDS011;65945;53.148;17.956;2024-01-16T10:02:10;10.90;;;3.10;;
77010;SDS011;65945;53.148;17.956;2024-01-16T10:04:36;8.00;;;2.30;;
77010;SDS011;65945;53.148;17.956;2024-01-16T10:07:03;8.50;;;3.00;;
77010;SDS011;65945;53.148;17.956;2024-01-16T10:09:31;7.00;;;2.50;;
77010;SDS011;65945;53.148;17.956;2024-01-16T10:11:57;6.30;;;2.90;;
77010;SDS011;65945;53.148;17.956;2024-01-16T10:14:26;10.10;;;3.30;;
77010;SDS011;65945;53.148;17.956;2024-01-16T10:17:02;6.80;;;2.40;;
77010;SDS011;65945;53.148;17.956;2024-01-16T10:19:37;7.40;;;2.30;;
77010;SDS011;65945;53.148;17.956;2024-01-16T10:22:21;4.30;;;1.80;;
77010;SDS011;65945;53.148;17.956;2024-01-16T10:24:49;6.70;;;2.00;;
77010;SDS011;65945;53.148;17.956;2024-01-16T10:27:16;7.20;;;2.50;;
77010;SDS011;65945;53.148;17.956;2024-01-16T10:29:57;5.00;;;1.70;;
77010;SDS011;65945;53.148;17.956;2024-01-16T10:32:28;3.80;;;1.50;;
77010;SDS011;65945;53.148;17.956;2024-01-16T10:35:01;4.40;;;1.90;;
77010;SDS011;65945;53.148;17.956;2024-01-16T10:37:31;5.00;;;2.10;;
77010;SDS011;65945;53.148;17.956;2024-01-16T10:40:07;7.80;;;2.90;;
77010;SDS011;65945;53.148;17.956;2024-01-16T10:42:34;7.50;;;1.70;;
77010;SDS011;65945;53.148;17.956;2024-01-16T10:45:01;7.80;;;2.00;;
77010;SDS011;65945;53.148;17.956;2024-01-16T10:47:27;4.90;;;1.90;;
77010;SDS011;65945;53.148;17.956;2024-01-16T10:49:54;3.50;;;1.30;;
77010;SDS011;65945;53.148;17.956;2024-01-16T10:52:21;4.00;;;1.70;;
77010;SDS011;65945;53.148;17.956;2024-01-16T10:54:53;3.80;;;1.90;;
77010;SDS011;65945;53.148;17.956;2024-01-16T10:57:24;8.70;;;2.60;;
77010;SDS011;65945;53.148;17.956;2024-01-16T10:59:56;6.00;;;2.50;;
77010;SDS011;65945;53.148;17.956;2024-01-16T11:02:44;6.70;;;2.20;;
77010;SDS011;65945;53.148;17.956;2024-01-16T11:05:17;6.10;;;1.80;;
77010;SDS011;65945;53.148;17.956;2024-01-16T11:07:47;6.20;;;2.30;;
77010;SDS011;65945;53.148;17.956;2024-01-16T11:10:15;7.20;;;1.80;;
77010;SDS011;65945;53.148;17.956;2024-01-16T11:12:46;6.20;;;2.00;;
77010;SDS011;65945;53.148;17.956;2024-01-16T11:15:14;4.70;;;1.80;;
77010;SDS011;65945;53.148;17.956;2024-01-16T11:17:41;5.00;;;2.00;;
77010;SDS011;65945;53.148;17.956;2024-01-16T11:20:14;5.00;;;1.70;;
77010;SDS011;65945;53.148;17.956;2024-01-16T11:22:43;5.30;;;1.40;;
77010;SDS011;65945;53.148;17.956;2024-01-16T11:25:12;4.60;;;1.50;;
77010;SDS011;65945;53.148;17.956;2024-01-16T11:27:43;3.30;;;1.40;;
77010;SDS011;65945;53.148;17.956;2024-01-16T11:30:11;6.60;;;2.00;;
77010;SDS011;65945;53.148;17.956;2024-01-16T11:32:39;4.60;;;2.20;;
77010;SDS011;65945;53.148;17.956;2024-01-16T11:35:07;4.20;;;1.40;;
77010;SDS011;65945;53.148;17.956;2024-01-16T11:37:35;4.40;;;1.30;;
77010;SDS011;65945;53.148;17.956;2024-01-16T11:42:43;5.10;;;1.70;;
77010;SDS011;65945;53.148;17.956;2024-01-16T11:48:14;3.00;;;1.30;;
77010;SDS011;65945;53.148;17.956;2024-01-16T11:50:42;4.10;;;1.60;;
77010;SDS011;65945;53.148;17.956;2024-01-16T11:53:09;15.80;;;4.00;;
77010;SDS011;65945;53.148;17.956;2024-01-16T12:01:17;1.80;;;0.90;;
77010;SDS011;65945;53.148;17.956;2024-01-16T12:04:05;4.50;;;1.30;;
77010;SDS011;65945;53.148;17.956;2024-01-16T12:06:33;3.30;;;1.50;;
77010;SDS011;65945;53.148;17.956;2024-01-16T12:09:14;3.50;;;1.60;;
77010;SDS011;65945;53.148;17.956;2024-01-16T12:11:42;1.30;;;0.80;;
77010;SDS011;65945;53.148;17.956;2024-01-16T12:14:11;3.00;;;0.80;;
77010;SDS011;65945;53.148;17.956;2024-01-16T12:16:38;2.50;;;1.30;;
77010;SDS011;65945;53.148;17.956;2024-01-16T12:19:06;4.00;;;1.40;;
77010;SDS011;65945;53.148;17.956;2024-01-16T12:21:35;6.00;;;2.00;;
77010;SDS011;65945;53.148;17.956;2024-01-16T12:24:05;5.20;;;1.80;;
77010;SDS011;65945;53.148;17.956;2024-01-16T12:26:32;4.10;;;1.20;;
77010;SDS011;65945;53.148;17.956;2024-01-16T12:28:59;5.00;;;1.80;;
77010;SDS011;65945;53.148;17.956;2024-01-16T12:31:26;4.00;;;1.80;;
77010;SDS011;65945;53.148;17.956;2024-01-16T12:34:02;4.40;;;1.80;;
77010;SDS011;65945;53.148;17.956;2024-01-16T12:36:34;5.80;;;1.40;;
77010;SDS011;65945;53.148;17.956;2024-01-16T12:39:04;6.40;;;1.60;;
77010;SDS011;65945;53.148;17.956;2024-01-16T12:41:34;2.40;;;1.30;;
77010;SDS011;65945;53.148;17.956;2024-01-16T12:44:03;5.30;;;1.70;;
77010;SDS011;65945;53.148;17.956;2024-01-16T12:46:30;6.30;;;1.70;;
77010;SDS011;65945;53.148;17.956;2024-01-16T12:49:02;6.90;;;2.00;;
77010;SDS011;65945;53.148;17.956;2024-01-16T12:51:29;4.50;;;1.50;;
77010;SDS011;65945;53.148;17.956;2024-01-16T12:54:14;5.80;;;1.10;;
77010;SDS011;65945;53.148;17.956;2024-01-16T12:56:44;5.10;;;1.40;;
77010;SDS011;65945;53.148;17.956;2024-01-16T12:59:11;6.60;;;1.70;;
77010;SDS011;65945;53.148;17.956;2024-01-16T13:01:42;4.00;;;1.50;;
77010;SDS011;65945;53.148;17.956;2024-01-16T13:04:10;4.50;;;1.40;;
77010;SDS011;65945;53.148;17.956;2024-01-16T13:06:37;3.90;;;1.50;;
77010;SDS011;65945;53.148;17.956;2024-01-16T13:09:05;4.20;;;1.90;;
77010;SDS011;65945;53.148;17.956;2024-01-16T13:11:48;3.00;;;1.20;;
77010;SDS011;65945;53.148;17.956;2024-01-16T13:14:21;3.10;;;1.10;;
77010;SDS011;65945;53.148;17.956;2024-01-16T13:16:49;2.60;;;1.20;;
77010;SDS011;65945;53.148;17.956;2024-01-16T13:19:20;3.60;;;1.00;;
77010;SDS011;65945;53.148;17.956;2024-01-16T13:21:47;6.10;;;1.90;;
77010;SDS011;65945;53.148;17.956;2024-01-16T13:24:15;4.90;;;1.20;;
77010;SDS011;65945;53.148;17.956;2024-01-16T13:26:44;5.80;;;1.30;;
77010;SDS011;65945;53.148;17.956;2024-01-16T13:29:11;2.80;;;1.20;;
77010;SDS011;65945;53.148;17.956;2024-01-16T13:31:39;5.00;;;1.50;;
77010;SDS011;65945;53.148;17.956;2024-01-16T13:34:05;3.80;;;1.30;;
77010;SDS011;65945;53.148;17.956;2024-01-16T13:36:32;2.70;;;1.20;;
77010;SDS011;65945;53.148;17.956;2024-01-16T13:38:59;4.30;;;1.30;;
77010;SDS011;65945;53.148;17.956;2024-01-16T13:41:25;6.90;;;2.10;;
77010;SDS011;65945;53.148;17.956;2024-01-16T13:43:52;5.90;;;1.50;;
77010;SDS011;65945;53.148;17.956;2024-01-16T13:46:18;13.80;;;3.30;;
77010;SDS011;65945;53.148;17.956;2024-01-16T13:48:45;11.10;;;2.70;;
77010;SDS011;65945;53.148;17.956;2024-01-16T13:51:12;3.90;;;1.70;;
77010;SDS011;65945;53.148;17.956;2024-01-16T13:53:38;6.00;;;1.70;;
77010;SDS011;65945;53.148;17.956;2024-01-16T13:56:05;5.80;;;2.10;;
77010;SDS011;65945;53.148;17.956;2024-01-16T13:58:32;7.40;;;2.00;;
77010;SDS011;65945;53.148;17.956;2024-01-16T14:00:58;6.70;;;2.10;;
77010;SDS011;65945;53.148;17.956;2024-01-16T14:03:25;8.50;;;2.60;;
77010;SDS011;65945;53.148;17.956;2024-01-16T14:05:51;8.20;;;2.50;;
77010;SDS011;65945;53.148;17.956;2024-01-16T14:08:19;9.50;;;2.10;;
77010;SDS011;65945;53.148;17.956;2024-01-16T14:10:45;7.70;;;2.70;;
77010;SDS011;65945;53.148;17.956;2024-01-16T14:13:12;10.60;;;3.20;;
77010;SDS011;65945;53.148;17.956;2024-01-16T14:15:39;7.30;;;2.90;;
77010;SDS011;65945;53.148;17.956;2024-01-16T14:18:05;11.20;;;3.40;;
77010;SDS011;65945;53.148;17.956;2024-01-16T14:20:32;10.70;;;3.50;;
77010;SDS011;65945;53.148;17.956;2024-01-16T14:22:59;9.90;;;3.60;;
77010;SDS011;65945;53.148;17.956;2024-01-16T14:25:26;12.60;;;3.90;;
77010;SDS011;65945;53.148;17.956;2024-01-16T14:30:26;10.50;;;3.40;;
77010;SDS011;65945;53.148;17.956;2024-01-16T14:32:53;9.60;;;3.70;;
77010;SDS011;65945;53.148;17.956;2024-01-16T14:35:21;6.50;;;3.10;;
77010;SDS011;65945;53.148;17.956;2024-01-16T14:37:50;12.00;;;3.70;;
77010;SDS011;65945;53.148;17.956;2024-01-16T14:40:17;7.00;;;3.20;;
77010;SDS011;65945;53.148;17.956;2024-01-16T14:42:52;8.60;;;3.40;;
77010;SDS011;65945;53.148;17.956;2024-01-16T14:45:25;12.40;;;3.20;;
77010;SDS011;65945;53.148;17.956;2024-01-16T14:47:57;10.50;;;3.90;;